Time;durP1;ratioP1;P1;durP2;ratioP2;P2;SDS_P1;SDS_P2;PMS_P1;PMS_P2;Temp;Humidity;BMP_temperature;BMP_pressure;BME280_temperature;BME280_humidity;BME280_pressure;Samples;Min_cycle;Max_cycle;Signal;HPM_P1;HPM_P2
2022/12/20 00:00:49;;;;;;;5.28;2.55;;;9.70;99.90;;;;;;5079309;28;20059;-82
2022/12/20 00:03:15;;;;;;;3.90;2.33;;;9.70;99.90;;;;;;5079849;28;20024;-81
2022/12/20 00:05:42;;;;;;;4.72;2.65;;;9.70;99.90;;;;;;5079274;28;20116;-81
2022/12/20 00:08:09;;;;;;;6.38;2.88;;;9.70;99.90;;;;;;5058392;28;20090;-81
2022/12/20 00:10:39;;;;;;;4.57;3.05;;;9.70;99.90;;;;;;5076760;28;20042;-82
2022/12/20 00:13:06;;;;;;;5.38;3.00;;;9.70;99.90;;;;;;5074767;28;20063;-82
2022/12/20 00:15:32;;;;;;;4.90;3.00;;;9.70;99.90;;;;;;5083105;28;20468;-82
2022/12/20 00:17:59;;;;;;;3.42;2.70;;;9.70;99.90;;;;;;5076900;28;20164;-81
2022/12/20 00:20:25;;;;;;;4.30;2.70;;;9.70;99.90;;;;;;5058478;28;20048;-83
2022/12/20 00:22:51;;;;;;;4.45;2.30;;;9.70;99.90;;;;;;5079436;28;20489;-81
2022/12/20 00:25:19;;;;;;;4.57;2.78;;;9.70;99.90;;;;;;5061970;28;20028;-82
2022/12/20 00:27:46;;;;;;;4.78;2.83;;;9.70;99.90;;;;;;5060217;28;20082;-81
2022/12/20 00:30:13;;;;;;;4.63;2.42;;;9.80;99.90;;;;;;5071659;28;20103;-81
2022/12/20 00:32:39;;;;;;;4.78;2.90;;;9.80;99.90;;;;;;5070870;28;20029;-82
2022/12/20 00:35:05;;;;;;;3.50;2.30;;;9.90;99.90;;;;;;5080562;28;20028;-82
2022/12/20 00:37:31;;;;;;;4.85;2.63;;;9.90;99.90;;;;;;5079989;28;20034;-82
2022/12/20 00:39:58;;;;;;;5.43;2.78;;;9.90;99.90;;;;;;5057908;28;20025;-82
2022/12/20 00:42:24;;;;;;;4.45;2.45;;;9.90;99.90;;;;;;5081075;28;20764;-82
2022/12/20 00:44:50;;;;;;;4.30;2.47;;;10.00;99.90;;;;;;5076575;28;20059;-81
2022/12/20 00:47:16;;;;;;;3.30;2.30;;;10.00;99.90;;;;;;5079564;28;20056;-82
2022/12/20 00:49:42;;;;;;;3.83;2.30;;;10.10;99.90;;;;;;5059952;28;20099;-81
2022/12/20 00:52:08;;;;;;;4.03;2.20;;;10.10;99.90;;;;;;5075441;28;20038;-82
2022/12/20 00:54:33;;;;;;;4.05;2.40;;;10.20;99.90;;;;;;5076327;28;20031;-81
2022/12/20 00:56:59;;;;;;;4.03;2.20;;;10.20;99.90;;;;;;5079501;28;20034;-81
2022/12/20 00:59:25;;;;;;;6.80;2.20;;;10.30;99.90;;;;;;5079139;28;20020;-82
2022/12/20 01:01:51;;;;;;;4.78;2.35;;;10.40;99.90;;;;;;5076415;28;20038;-82
2022/12/20 01:04:17;;;;;;;3.83;1.95;;;10.40;99.90;;;;;;5057566;28;20098;-82
2022/12/20 01:06:43;;;;;;;5.28;2.40;;;10.40;99.90;;;;;;5077920;28;20032;-82
2022/12/20 01:09:11;;;;;;;5.10;2.33;;;10.50;99.90;;;;;;5079488;28;20489;-82
2022/12/20 01:11:37;;;;;;;6.15;2.00;;;10.50;99.90;;;;;;5077795;28;20120;-82
2022/12/20 01:14:13;;;;;;;4.75;2.30;;;10.50;99.90;;;;;;5058467;28;20028;-83
2022/12/20 01:16:44;;;;;;;3.53;2.10;;;10.50;99.90;;;;;;5077718;28;20032;-83
2022/12/20 01:19:13;;;;;;;3.65;2.10;;;10.60;99.90;;;;;;5059048;28;20036;-83
2022/12/20 01:21:43;;;;;;;3.67;1.98;;;10.60;99.90;;;;;;5059626;28;20482;-83
2022/12/20 01:24:10;;;;;;;4.60;2.00;;;10.50;99.90;;;;;;5089884;28;20063;-83
2022/12/20 01:26:35;;;;;;;4.07;2.15;;;10.50;99.90;;;;;;5061496;28;20016;-82
2022/12/20 01:29:01;;;;;;;4.88;2.38;;;10.50;99.90;;;;;;5077481;28;20156;-84
2022/12/20 01:31:28;;;;;;;5.35;1.98;;;10.50;99.90;;;;;;5058978;28;20032;-83
2022/12/20 01:33:54;;;;;;;4.05;2.00;;;10.50;99.90;;;;;;5082333;28;20069;-82
2022/12/20 01:36:25;;;;;;;3.30;1.90;;;10.40;99.90;;;;;;5061974;28;20543;-82
2022/12/20 01:38:56;;;;;;;4.25;1.67;;;10.40;99.90;;;;;;5064536;28;20516;-82
2022/12/20 01:41:23;;;;;;;3.15;1.88;;;10.40;99.90;;;;;;5079837;28;20474;-82
2022/12/20 01:43:52;;;;;;;3.03;2.08;;;10.30;99.90;;;;;;5091286;28;20032;-83
2022/12/20 01:46:19;;;;;;;3.83;2.10;;;10.20;99.90;;;;;;5060966;28;20505;-81
2022/12/20 01:49:05;;;;;;;3.58;1.95;;;10.00;99.90;;;;;;5065256;28;20024;-82
2022/12/20 01:51:37;;;;;;;3.53;2.00;;;9.90;99.90;;;;;;5089061;28;20048;-82
2022/12/20 01:54:09;;;;;;;3.47;2.10;;;9.80;99.90;;;;;;5077035;28;20028;-84
2022/12/20 01:56:36;;;;;;;4.90;1.92;;;9.70;99.90;;;;;;5084566;28;20033;-82
2022/12/20 01:59:02;;;;;;;3.85;2.40;;;9.70;99.90;;;;;;5061555;28;20047;-82
2022/12/20 02:01:28;;;;;;;4.80;2.78;;;9.60;99.90;;;;;;5070631;28;20499;-82
2022/12/20 02:03:54;;;;;;;4.18;2.33;;;9.60;99.90;;;;;;5068043;28;20040;-83
2022/12/20 02:06:23;;;;;;;3.65;2.33;;;9.60;99.90;;;;;;5057372;28;20082;-82
2022/12/20 02:08:51;;;;;;;4.18;2.67;;;9.50;99.90;;;;;;5083138;28;20024;-83
2022/12/20 02:11:32;;;;;;;4.03;2.55;;;9.50;99.90;;;;;;5079630;28;20525;-83
2022/12/20 02:14:34;;;;;;;5.47;2.58;;;9.60;99.90;;;;;;5076272;28;20050;-84
2022/12/20 02:17:16;;;;;;;5.90;2.75;;;9.60;99.90;;;;;;5081438;28;20029;-84
2022/12/20 02:19:47;;;;;;;5.30;3.10;;;9.50;99.90;;;;;;5089578;28;20042;-82
2022/12/20 02:22:40;;;;;;;6.60;3.42;;;9.60;99.90;;;;;;5077751;28;20122;-82
2022/12/20 02:25:37;;;;;;;5.77;3.47;;;9.60;99.90;;;;;;5061833;28;20123;-83
2022/12/20 02:28:30;;;;;;;5.63;3.25;;;9.50;99.90;;;;;;5058307;28;20020;-83
2022/12/20 02:30:59;;;;;;;5.05;3.20;;;9.60;99.90;;;;;;5080919;28;20048;-84
2022/12/20 02:33:27;;;;;;;5.32;3.50;;;9.60;99.90;;;;;;5087961;28;20043;-82
2022/12/20 02:35:53;;;;;;;5.53;3.50;;;9.60;99.90;;;;;;5058102;28;20055;-82
2022/12/20 02:38:31;;;;;;;6.60;3.88;;;9.50;99.90;;;;;;5086407;28;20055;-83
2022/12/20 02:41:25;;;;;;;5.20;3.67;;;9.60;99.90;;;;;;5074726;28;20023;-82
2022/12/20 02:46:41;;;;;;;6.15;4.03;;;9.70;99.90;;;;;;5080973;28;20031;-83
2022/12/20 02:49:15;;;;;;;6.35;4.03;;;9.60;99.90;;;;;;5060738;28;20079;-82
2022/12/20 02:51:44;;;;;;;6.00;3.58;;;9.70;99.90;;;;;;5072340;28;20043;-82
2022/12/20 02:54:10;;;;;;;6.55;3.70;;;9.70;99.90;;;;;;5086788;28;20035;-83
2022/12/20 02:56:41;;;;;;;5.30;3.40;;;9.70;99.90;;;;;;5062158;28;20024;-83
2022/12/20 02:59:21;;;;;;;6.63;3.72;;;9.60;99.90;;;;;;5060800;28;20026;-82
2022/12/20 03:01:50;;;;;;;7.20;3.67;;;9.60;99.90;;;;;;5088340;28;20117;-82
2022/12/20 03:04:18;;;;;;;5.70;3.35;;;9.60;99.90;;;;;;5055335;28;20020;-82
2022/12/20 03:07:00;;;;;;;4.45;3.13;;;9.60;99.90;;;;;;5089107;28;20020;-82
2022/12/20 03:09:27;;;;;;;5.65;3.60;;;9.70;99.90;;;;;;5073690;28;20050;-82
2022/12/20 03:11:53;;;;;;;5.72;3.38;;;9.60;99.90;;;;;;5090927;28;20032;-83
2022/12/20 03:14:19;;;;;;;5.40;3.67;;;9.60;99.90;;;;;;5073663;28;20431;-82
2022/12/20 03:16:44;;;;;;;6.70;3.30;;;9.60;99.90;;;;;;5090174;28;20024;-82
2022/12/20 03:19:10;;;;;;;5.35;3.40;;;9.60;99.90;;;;;;5091667;28;20095;-82
2022/12/20 03:21:35;;;;;;;7.75;3.50;;;9.60;99.90;;;;;;5072982;28;20081;-82
2022/12/20 03:24:01;;;;;;;4.93;3.47;;;9.60;99.90;;;;;;5091345;28;20501;-82
2022/12/20 03:26:26;;;;;;;6.47;4.07;;;9.60;99.90;;;;;;5091248;28;20523;-81
2022/12/20 03:28:52;;;;;;;5.80;3.92;;;9.60;99.90;;;;;;5073519;28;20024;-81
2022/12/20 03:31:18;;;;;;;5.65;3.70;;;9.60;99.90;;;;;;5091654;28;20062;-82
2022/12/20 03:33:43;;;;;;;5.68;3.83;;;9.60;99.90;;;;;;5073794;28;20491;-82
2022/12/20 03:36:09;;;;;;;5.95;3.47;;;9.60;99.90;;;;;;5073914;28;20016;-82
2022/12/20 03:38:35;;;;;;;7.47;3.75;;;9.60;99.90;;;;;;5091110;28;20107;-82
2022/12/20 03:41:00;;;;;;;6.10;3.85;;;9.70;99.90;;;;;;5090556;28;20399;-81
2022/12/20 03:43:26;;;;;;;4.15;3.28;;;9.70;99.90;;;;;;5073095;28;20024;-82
2022/12/20 03:45:51;;;;;;;4.93;3.55;;;9.70;99.90;;;;;;5091123;28;20492;-82
2022/12/20 03:48:17;;;;;;;6.15;3.78;;;9.70;99.90;;;;;;5091225;28;20096;-82
2022/12/20 03:50:42;;;;;;;6.75;4.30;;;9.70;99.90;;;;;;5091099;28;20054;-82
2022/12/20 03:53:08;;;;;;;5.22;3.80;;;9.80;99.90;;;;;;5091860;28;20505;-82
2022/12/20 03:55:33;;;;;;;7.40;3.55;;;9.80;99.90;;;;;;5073834;28;20032;-82
2022/12/20 03:57:59;;;;;;;5.57;3.58;;;9.80;99.90;;;;;;5073292;28;20020;-82
2022/12/20 04:00:25;;;;;;;4.97;3.47;;;9.90;99.90;;;;;;5073715;28;20023;-83
2022/12/20 04:02:51;;;;;;;7.57;3.65;;;9.90;99.90;;;;;;5073479;28;20081;-82
2022/12/20 04:05:16;;;;;;;5.80;3.88;;;9.90;99.90;;;;;;5090925;28;20013;-82
2022/12/20 04:07:44;;;;;;;4.90;3.25;;;10.00;99.90;;;;;;5090769;28;20066;-82
2022/12/20 04:10:10;;;;;;;5.57;3.20;;;10.00;99.90;;;;;;5091399;28;20039;-82
2022/12/20 04:12:36;;;;;;;4.55;2.97;;;10.00;99.90;;;;;;5090983;28;20504;-82
2022/12/20 04:15:02;;;;;;;5.75;3.28;;;10.00;99.90;;;;;;5091198;28;20101;-83
2022/12/20 04:17:28;;;;;;;6.22;3.58;;;10.00;99.90;;;;;;5073241;28;20121;-82
2022/12/20 04:19:53;;;;;;;6.00;3.60;;;10.00;99.90;;;;;;5073103;28;20643;-82
2022/12/20 04:22:19;;;;;;;5.32;3.20;;;10.10;99.90;;;;;;5072964;28;20028;-83
2022/12/20 04:24:45;;;;;;;5.45;3.80;;;10.20;99.90;;;;;;5072899;28;20110;-82
2022/12/20 04:27:11;;;;;;;5.35;3.85;;;10.10;99.90;;;;;;5091455;28;20027;-82
2022/12/20 04:29:37;;;;;;;5.60;3.42;;;10.20;99.90;;;;;;5073119;28;20020;-84
2022/12/20 04:32:03;;;;;;;4.80;3.35;;;10.20;99.90;;;;;;5091707;28;20036;-85
2022/12/20 04:34:28;;;;;;;6.75;3.75;;;10.20;99.90;;;;;;5073325;28;20416;-83
2022/12/20 04:36:54;;;;;;;5.15;3.65;;;10.20;99.90;;;;;;5072247;28;20474;-83
2022/12/20 04:39:20;;;;;;;6.55;3.45;;;10.30;99.90;;;;;;5072825;28;20147;-82
2022/12/20 04:41:45;;;;;;;5.97;3.63;;;10.30;99.90;;;;;;5091024;28;20100;-83
2022/12/20 04:44:11;;;;;;;5.22;3.92;;;10.30;99.90;;;;;;5091082;28;20024;-83
2022/12/20 04:46:36;;;;;;;5.35;2.90;;;10.30;99.90;;;;;;5091121;28;20103;-83
2022/12/20 04:49:02;;;;;;;5.70;2.90;;;10.30;99.90;;;;;;5091727;28;20028;-83
2022/12/20 04:51:28;;;;;;;4.38;3.28;;;10.30;99.90;;;;;;5076126;28;20083;-83
2022/12/20 04:53:54;;;;;;;5.80;3.20;;;10.40;99.90;;;;;;5076523;28;20063;-82
2022/12/20 04:56:23;;;;;;;5.93;3.45;;;10.40;99.90;;;;;;5076396;28;20070;-83
2022/12/20 04:58:50;;;;;;;4.93;3.25;;;10.50;99.90;;;;;;5076150;28;20031;-83
2022/12/20 05:01:16;;;;;;;4.40;2.90;;;10.50;99.90;;;;;;5094825;28;20090;-84
2022/12/20 05:03:43;;;;;;;5.70;2.72;;;10.60;99.90;;;;;;5076472;28;20028;-84
2022/12/20 05:06:09;;;;;;;5.60;3.17;;;10.60;99.90;;;;;;5094314;28;20048;-82
2022/12/20 05:08:36;;;;;;;4.38;2.95;;;10.50;99.90;;;;;;5094563;28;20058;-83
2022/12/20 05:11:03;;;;;;;5.78;2.92;;;10.50;99.90;;;;;;5094523;28;20085;-84
2022/12/20 05:13:28;;;;;;;5.60;3.08;;;10.50;99.90;;;;;;5076157;28;20078;-82
2022/12/20 05:15:55;;;;;;;4.25;2.80;;;10.40;99.90;;;;;;5094694;28;20174;-81
2022/12/20 05:18:21;;;;;;;8.50;3.53;;;10.50;99.90;;;;;;5075963;28;20023;-83
2022/12/20 05:20:47;;;;;;;4.90;3.03;;;10.40;99.90;;;;;;5076521;28;20031;-83
2022/12/20 05:26:16;;;;;;;10.15;3.25;;;10.30;99.90;;;;;;5095067;28;20047;-82
2022/12/20 05:28:42;;;;;;;7.55;3.10;;;10.20;99.90;;;;;;5077583;28;20024;-83
2022/12/20 05:31:08;;;;;;;4.50;3.05;;;10.20;99.90;;;;;;5094433;28;20036;-82
2022/12/20 05:33:33;;;;;;;5.65;2.97;;;10.20;99.90;;;;;;5094332;28;20099;-83
2022/12/20 05:35:59;;;;;;;5.28;3.50;;;10.20;99.90;;;;;;5075748;28;20114;-83
2022/12/20 05:38:25;;;;;;;5.30;3.50;;;10.10;99.90;;;;;;5093380;28;20035;-83
2022/12/20 05:40:51;;;;;;;6.88;3.65;;;10.10;99.90;;;;;;5093490;28;20024;-83
2022/12/20 05:43:17;;;;;;;7.13;3.85;;;10.10;99.90;;;;;;5075785;28;20024;-84
2022/12/20 05:45:51;;;;;;;6.65;3.60;;;10.10;99.90;;;;;;5067083;28;20027;-83
2022/12/20 05:48:16;;;;;;;;;;;10.10;99.90;;;;;;5056222;28;20028;-83
2022/12/20 05:50:43;;;;;;;7.13;3.42;;;10.10;99.90;;;;;;5072972;28;19916;-83
2022/12/20 05:53:13;;;;;;;4.45;3.15;;;10.10;99.90;;;;;;5073741;28;20035;-85
2022/12/20 05:55:43;;;;;;;5.22;3.13;;;10.10;99.90;;;;;;5053796;28;20120;-83
2022/12/20 05:58:12;;;;;;;6.97;3.65;;;10.10;99.90;;;;;;5071940;28;20048;-82
2022/12/20 06:00:39;;;;;;;5.10;3.05;;;10.10;99.90;;;;;;5053131;28;20492;-83
2022/12/20 06:03:05;;;;;;;4.57;2.85;;;10.10;99.90;;;;;;5054164;28;20020;-84
2022/12/20 06:05:30;;;;;;;5.18;3.40;;;10.10;99.90;;;;;;5070788;28;20078;-84
2022/12/20 06:07:57;;;;;;;5.38;3.30;;;10.10;99.90;;;;;;5070742;28;20021;-83
2022/12/20 06:10:23;;;;;;;5.50;3.30;;;10.10;99.90;;;;;;5055697;28;20424;-86
2022/12/20 06:12:49;;;;;;;7.30;3.08;;;10.10;99.90;;;;;;5081033;28;20061;-84
2022/12/20 06:15:14;;;;;;;5.57;3.72;;;10.10;99.90;;;;;;5060922;28;20032;-86
2022/12/20 06:17:40;;;;;;;7.20;3.67;;;10.10;99.90;;;;;;5080761;28;20024;-84
2022/12/20 06:20:06;;;;;;;5.85;3.15;;;10.10;99.90;;;;;;5062451;28;20054;-86
2022/12/20 06:22:32;;;;;;;4.32;3.03;;;10.10;99.90;;;;;;5044242;28;20121;-83
2022/12/20 06:25:00;;;;;;;5.97;3.65;;;10.20;99.90;;;;;;5062891;28;20477;-85
2022/12/20 06:27:26;;;;;;;8.55;3.35;;;10.20;99.90;;;;;;5074031;28;20020;-84
2022/12/20 06:29:53;;;;;;;5.07;3.15;;;10.20;99.90;;;;;;5057857;28;20489;-84
2022/12/20 06:32:19;;;;;;;4.45;3.20;;;10.20;99.90;;;;;;5074495;28;20032;-84
2022/12/20 06:34:44;;;;;;;4.40;3.42;;;10.20;99.90;;;;;;5077200;28;20155;-81
2022/12/20 06:37:10;;;;;;;8.25;3.17;;;10.20;99.90;;;;;;5070362;28;20024;-83
2022/12/20 06:39:36;;;;;;;5.30;3.40;;;10.20;99.90;;;;;;5059954;28;20023;-83
2022/12/20 06:42:02;;;;;;;3.83;2.67;;;10.30;99.90;;;;;;5082885;28;20036;-84
2022/12/20 06:44:27;;;;;;;6.80;3.33;;;10.30;99.90;;;;;;5067685;28;20107;-84
2022/12/20 06:46:53;;;;;;;5.45;3.00;;;10.30;99.90;;;;;;5075615;28;20479;-83
2022/12/20 06:49:18;;;;;;;5.63;3.47;;;10.30;99.90;;;;;;5070318;28;20055;-82
2022/12/20 06:51:44;;;;;;;4.63;2.80;;;10.40;99.90;;;;;;5079595;28;20067;-83
2022/12/20 06:54:10;;;;;;;6.40;3.25;;;10.40;99.90;;;;;;5093021;28;20022;-83
2022/12/20 06:56:35;;;;;;;5.32;2.90;;;10.40;99.90;;;;;;5070333;28;20038;-84
2022/12/20 06:59:01;;;;;;;4.22;2.90;;;10.40;99.90;;;;;;5074605;28;20412;-84
2022/12/20 07:01:26;;;;;;;4.05;2.78;;;10.40;99.90;;;;;;5091889;28;20401;-84
2022/12/20 07:03:52;;;;;;;6.07;3.20;;;10.40;99.90;;;;;;5074276;28;20035;-84
2022/12/20 07:06:17;;;;;;;5.47;3.05;;;10.40;99.90;;;;;;5061842;28;20078;-83
2022/12/20 07:08:43;;;;;;;4.25;2.55;;;10.50;99.90;;;;;;5083999;28;20556;-84
2022/12/20 07:11:09;;;;;;;5.50;3.30;;;10.50;99.90;;;;;;5077189;28;20111;-83
2022/12/20 07:13:35;;;;;;;5.10;2.72;;;10.50;99.90;;;;;;5085079;28;20039;-84
2022/12/20 07:16:02;;;;;;;4.70;2.60;;;10.50;99.90;;;;;;5081225;28;20039;-82
2022/12/20 07:18:28;;;;;;;9.15;3.20;;;10.50;99.90;;;;;;5077878;28;20529;-82
2022/12/20 07:20:57;;;;;;;5.25;3.03;;;10.50;99.90;;;;;;5066731;28;20128;-84
2022/12/20 07:23:23;;;;;;;6.93;3.20;;;10.50;99.90;;;;;;5080923;28;20374;-84
2022/12/20 07:25:56;;;;;;;5.63;3.00;;;10.60;99.90;;;;;;5069409;28;20021;-83
2022/12/20 07:28:23;;;;;;;4.30;3.00;;;10.60;99.90;;;;;;5080241;28;20021;-83
2022/12/20 07:30:49;;;;;;;5.82;3.10;;;10.60;99.90;;;;;;5082563;28;20040;-84
2022/12/20 07:33:15;;;;;;;4.95;3.10;;;10.60;99.90;;;;;;5078000;28;20021;-85
2022/12/20 07:35:42;;;;;;;4.10;2.35;;;10.60;99.90;;;;;;5078777;28;20503;-83
2022/12/20 07:38:08;;;;;;;3.78;2.90;;;10.50;99.90;;;;;;5079808;28;20016;-83
2022/12/20 07:40:34;;;;;;;3.80;2.50;;;10.50;99.90;;;;;;5087278;28;20028;-86
2022/12/20 07:42:59;;;;;;;5.03;3.03;;;10.50;99.90;;;;;;5056189;28;20027;-84
2022/12/20 07:45:25;;;;;;;4.15;2.33;;;10.50;99.90;;;;;;5085008;28;20095;-85
2022/12/20 07:47:51;;;;;;;5.03;2.88;;;10.40;99.90;;;;;;5078555;28;20038;-83
2022/12/20 07:50:16;;;;;;;4.82;2.83;;;10.50;99.90;;;;;;5062253;28;20570;-83
2022/12/20 07:52:45;;;;;;;4.85;2.55;;;10.50;99.90;;;;;;5089623;28;20040;-85
2022/12/20 07:55:11;;;;;;;4.70;2.65;;;10.50;99.90;;;;;;5080600;28;20511;-84
2022/12/20 07:57:43;;;;;;;3.95;2.45;;;10.50;99.90;;;;;;5076986;28;20028;-82
2022/12/20 08:00:10;;;;;;;7.80;3.15;;;10.60;99.90;;;;;;5062562;28;20020;-84
2022/12/20 08:02:47;;;;;;;7.13;3.08;;;10.50;99.90;;;;;;5072310;28;20022;-84
2022/12/20 08:05:13;;;;;;;5.50;2.58;;;10.50;99.90;;;;;;5073477;28;20012;-82
2022/12/20 08:07:41;;;;;;;6.68;2.75;;;10.50;99.90;;;;;;5083973;28;20052;-82
2022/12/20 08:10:10;;;;;;;5.80;2.75;;;10.40;99.90;;;;;;5063823;28;20020;-83
2022/12/20 08:12:37;;;;;;;5.40;2.55;;;10.30;99.90;;;;;;5060305;28;20538;-83
2022/12/20 08:15:03;;;;;;;3.80;2.63;;;10.20;99.90;;;;;;5055605;28;20047;-84
2022/12/20 08:17:29;;;;;;;3.30;2.45;;;10.20;99.90;;;;;;5068539;28;20020;-83
2022/12/20 08:19:56;;;;;;;4.95;2.88;;;10.10;99.90;;;;;;5051778;28;20496;-82
2022/12/20 08:22:22;;;;;;;4.05;2.80;;;10.10;99.90;;;;;;5082759;28;20016;-84
2022/12/20 08:24:47;;;;;;;4.93;2.97;;;10.10;99.90;;;;;;5059031;28;20085;-86
2022/12/20 08:27:14;;;;;;;4.57;2.53;;;10.00;99.90;;;;;;5073657;28;20020;-86
2022/12/20 08:29:40;;;;;;;4.35;2.50;;;10.10;99.90;;;;;;5075286;28;20021;-85
2022/12/20 08:32:05;;;;;;;4.90;3.15;;;10.00;99.90;;;;;;5074741;28;20425;-83
2022/12/20 08:34:31;;;;;;;4.55;2.72;;;10.00;99.90;;;;;;5074671;28;20024;-85
2022/12/20 08:36:57;;;;;;;4.93;3.13;;;10.00;99.90;;;;;;5056598;28;20043;-83
2022/12/20 08:39:23;;;;;;;5.45;3.42;;;10.00;99.90;;;;;;5074357;28;20663;-85
2022/12/20 08:41:49;;;;;;;6.30;3.00;;;9.90;99.90;;;;;;5056607;28;20033;-83
2022/12/20 08:44:14;;;;;;;4.95;2.90;;;10.00;99.90;;;;;;5056220;28;20013;-83
2022/12/20 08:46:40;;;;;;;5.75;2.80;;;10.00;99.90;;;;;;5055743;28;20453;-82
2022/12/20 08:49:06;;;;;;;3.63;2.50;;;10.00;99.90;;;;;;5055849;28;20093;-83
2022/12/20 08:51:31;;;;;;;5.00;2.67;;;10.00;99.90;;;;;;5056286;28;20062;-84
2022/12/20 08:53:57;;;;;;;4.30;2.83;;;10.00;99.90;;;;;;5073888;28;20355;-84
2022/12/20 08:56:23;;;;;;;3.78;2.72;;;10.10;99.90;;;;;;5074515;28;20036;-85
2022/12/20 08:58:48;;;;;;;4.93;2.80;;;10.10;99.90;;;;;;5056070;28;20028;-84
2022/12/20 09:01:20;;;;;;;4.43;3.08;;;10.10;99.90;;;;;;5056279;28;20445;-86
2022/12/20 09:03:46;;;;;;;6.22;3.10;;;10.10;99.90;;;;;;5056133;28;20025;-85
2022/12/20 09:06:16;;;;;;;5.38;3.05;;;10.10;99.90;;;;;;5055663;28;20139;-85
2022/12/20 09:08:42;;;;;;;5.53;3.10;;;10.10;99.90;;;;;;5073471;28;20025;-86
2022/12/20 09:11:14;;;;;;;8.18;3.47;;;10.10;99.90;;;;;;5055672;28;20089;-85
2022/12/20 09:13:40;;;;;;;5.55;3.03;;;10.00;99.90;;;;;;5056008;28;20027;-84
2022/12/20 09:16:07;;;;;;;5.57;3.05;;;10.00;99.90;;;;;;5056180;28;20513;-86
2022/12/20 09:18:33;;;;;;;6.43;3.22;;;10.00;99.90;;;;;;5056719;28;20028;-85
2022/12/20 09:21:00;;;;;;;5.32;2.88;;;10.00;99.90;;;;;;5074567;28;20032;-86
2022/12/20 09:23:26;;;;;;;5.43;2.97;;;10.00;99.90;;;;;;5073793;28;20052;-84
2022/12/20 09:25:52;;;;;;;5.22;3.15;;;10.00;99.90;;;;;;5055906;28;20101;-84
2022/12/20 09:28:18;;;;;;;5.15;3.03;;;10.00;99.90;;;;;;5055203;28;20529;-85
2022/12/20 09:30:44;;;;;;;4.13;2.90;;;10.00;99.90;;;;;;5073363;28;20029;-85
2022/12/20 09:33:09;;;;;;;4.50;3.00;;;9.90;99.90;;;;;;5073381;28;20497;-85
2022/12/20 09:35:35;;;;;;;5.65;2.83;;;10.00;99.90;;;;;;5072257;28;20363;-85
2022/12/20 09:38:01;;;;;;;7.30;3.33;;;9.90;99.90;;;;;;5054901;28;20105;-83
2022/12/20 09:40:31;;;;;;;7.28;2.95;;;9.90;99.90;;;;;;5054626;28;20024;-84
2022/12/20 09:42:57;;;;;;;7.25;3.35;;;10.00;99.90;;;;;;5073520;28;20020;-84
2022/12/20 09:45:28;;;;;;;6.60;3.20;;;9.90;99.90;;;;;;5072800;28;20044;-83
2022/12/20 09:47:54;;;;;;;5.60;3.17;;;10.00;99.90;;;;;;5072977;28;20021;-83
2022/12/20 09:50:38;;;;;;;7.00;3.10;;;10.00;99.90;;;;;;5054482;28;20049;-83
2022/12/20 09:53:32;;;;;;;6.47;3.40;;;10.00;99.90;;;;;;5073018;28;20032;-84
2022/12/20 09:56:04;;;;;;;8.45;3.50;;;10.00;99.90;;;;;;5073055;28;20034;-83
2022/12/20 09:58:30;;;;;;;5.57;3.33;;;10.00;99.90;;;;;;5073208;28;20490;-82
2022/12/20 10:00:56;;;;;;;5.10;3.08;;;10.00;99.90;;;;;;5072389;28;20056;-82
2022/12/20 10:03:30;;;;;;;5.00;2.58;;;10.00;99.90;;;;;;5068267;28;20033;-83
2022/12/20 10:06:02;;;;;;;7.35;4.05;;;10.00;99.90;;;;;;5053411;28;20536;-82
2022/12/20 10:08:45;;;;;;;6.00;2.93;;;10.00;99.90;;;;;;5072159;28;20112;-82
2022/12/20 10:11:23;;;;;;;5.20;3.20;;;10.00;99.90;;;;;;5072059;28;20108;-83
2022/12/20 10:14:13;;;;;;;5.65;3.15;;;10.00;99.90;;;;;;5053697;28;20025;-81
2022/12/20 10:16:45;;;;;;;6.07;2.90;;;10.00;99.90;;;;;;5071572;28;20028;-83
2022/12/20 10:19:59;;;;;;;5.38;3.00;;;10.00;99.90;;;;;;5053662;28;20028;-83
2022/12/20 10:22:32;;;;;;;7.95;3.50;;;10.00;99.90;;;;;;5071826;28;20419;-84
2022/12/20 10:25:16;;;;;;;5.40;2.95;;;10.10;99.90;;;;;;5071451;28;20024;-83
2022/12/20 10:27:44;;;;;;;5.82;3.05;;;10.10;99.90;;;;;;5071693;28;20029;-83
2022/12/20 10:30:17;;;;;;;5.10;2.80;;;10.10;99.90;;;;;;5053866;28;20033;-83
2022/12/20 10:32:48;;;;;;;6.97;3.25;;;10.10;99.90;;;;;;5053665;28;20037;-83
2022/12/20 10:35:13;;;;;;;5.60;3.30;;;10.00;99.90;;;;;;5050779;28;20017;-84
2022/12/20 10:38:02;;;;;;;7.30;2.95;;;10.00;99.90;;;;;;5071281;28;20360;-83
2022/12/20 10:40:31;;;;;;;5.25;3.28;;;10.00;99.90;;;;;;5060088;28;20031;-82
2022/12/20 10:42:57;;;;;;;4.85;3.65;;;10.10;99.90;;;;;;5064220;28;20024;-83
2022/12/20 10:45:32;;;;;;;7.60;4.05;;;10.10;99.90;;;;;;5075134;28;20020;-84
2022/12/20 10:48:01;;;;;;;5.88;3.45;;;10.10;99.90;;;;;;5062388;28;20025;-83
2022/12/20 10:50:27;;;;;;;5.43;3.50;;;10.10;99.90;;;;;;5077660;28;20055;-84
2022/12/20 10:53:11;;;;;;;4.72;3.60;;;10.10;99.90;;;;;;5079603;28;20031;-83
2022/12/20 10:55:36;;;;;;;7.57;3.20;;;10.10;99.90;;;;;;5065671;28;20028;-83
2022/12/20 10:58:17;;;;;;;6.05;3.50;;;10.10;99.90;;;;;;5065690;28;20478;-83
2022/12/20 11:00:44;;;;;;;5.78;3.40;;;10.10;99.90;;;;;;5062997;28;20031;-82
2022/12/20 11:03:21;;;;;;;4.90;3.50;;;10.10;99.90;;;;;;5080604;28;20072;-82
2022/12/20 11:05:58;;;;;;;6.80;4.32;;;10.10;99.90;;;;;;5085314;28;20009;-84
2022/12/20 11:08:26;;;;;;;5.80;3.65;;;10.20;99.90;;;;;;5078411;28;20089;-84
2022/12/20 11:11:11;;;;;;;6.18;3.92;;;10.20;99.90;;;;;;5073250;28;20020;-84
2022/12/20 11:13:38;;;;;;;5.88;4.10;;;10.20;99.90;;;;;;5079804;28;20017;-87
2022/12/20 11:16:03;;;;;;;6.72;3.95;;;10.20;99.90;;;;;;5082910;28;20033;-86
2022/12/20 11:18:58;;;;;;;6.35;4.18;;;10.20;99.90;;;;;;5080674;28;20047;-85
2022/12/20 11:21:45;;;;;;;5.43;3.63;;;10.20;99.90;;;;;;5073674;28;20033;-84
2022/12/20 11:24:16;;;;;;;5.25;3.72;;;10.20;99.90;;;;;;5061665;28;20034;-85
2022/12/20 11:26:57;;;;;;;6.20;3.30;;;10.20;99.90;;;;;;5078855;28;20020;-83
2022/12/20 11:29:50;;;;;;;5.60;3.10;;;10.20;99.90;;;;;;5065210;28;20387;-85
2022/12/20 11:32:45;;;;;;;5.00;3.17;;;10.30;99.90;;;;;;5055863;28;20228;-85
2022/12/20 11:35:29;;;;;;;7.68;4.38;;;10.20;99.90;;;;;;5074106;28;20040;-84
2022/12/20 11:38:22;;;;;;;5.90;3.78;;;10.30;99.90;;;;;;5071930;28;20047;-84
2022/12/20 11:41:16;;;;;;;7.63;4.05;;;10.30;99.90;;;;;;5078618;28;20020;-84
2022/12/20 11:44:01;;;;;;;;;;;10.30;99.90;;;;;;5074140;28;20085;-85
2022/12/20 11:47:04;;;;;;;8.45;4.28;;;10.30;99.90;;;;;;5076544;28;20332;-86
2022/12/20 11:49:39;;;;;;;5.43;4.17;;;10.30;99.90;;;;;;5071941;28;20045;-85
2022/12/20 11:52:15;;;;;;;7.47;4.20;;;10.30;99.90;;;;;;5083489;28;20305;-87
2022/12/20 11:54:46;;;;;;;7.47;4.47;;;10.30;99.90;;;;;;5060990;28;20032;-85
2022/12/20 11:57:55;;;;;;;9.68;4.50;;;10.30;99.90;;;;;;5056315;28;20498;-86
2022/12/20 12:00:22;;;;;;;6.70;4.43;;;10.30;99.90;;;;;;5063339;28;20051;-86
2022/12/20 12:03:01;;;;;;;5.88;4.05;;;10.30;99.90;;;;;;5071238;28;20052;-87
2022/12/20 12:05:51;;;;;;;7.97;4.45;;;10.40;99.90;;;;;;5053620;28;20364;-86
2022/12/20 12:08:42;;;;;;;6.68;3.83;;;10.40;99.90;;;;;;5077862;28;20016;-87
2022/12/20 12:11:20;;;;;;;5.82;3.90;;;10.40;99.90;;;;;;5058152;28;20075;-85
2022/12/20 12:13:47;;;;;;;7.55;4.68;;;10.40;99.90;;;;;;5071322;28;20086;-87
2022/12/20 12:16:31;;;;;;;6.70;4.97;;;10.40;99.90;;;;;;5062737;28;20480;-85
2022/12/20 12:18:59;;;;;;;6.50;4.38;;;10.40;99.90;;;;;;5061790;28;20030;-86
2022/12/20 12:21:46;;;;;;;5.05;3.75;;;10.40;99.90;;;;;;5079084;28;20022;-86
2022/12/20 12:24:28;;;;;;;9.90;4.35;;;10.40;99.90;;;;;;5062512;28;20248;-86
2022/12/20 12:26:54;;;;;;;7.53;4.13;;;10.40;99.90;;;;;;5058287;28;20021;-85
2022/12/20 12:29:20;;;;;;;9.90;3.80;;;10.40;99.90;;;;;;5085389;28;20017;-85
2022/12/20 12:31:51;;;;;;;7.07;3.78;;;10.50;99.90;;;;;;5055211;28;20528;-86
2022/12/20 12:34:55;;;;;;;5.80;4.15;;;10.50;99.90;;;;;;5065595;28;20027;-86
2022/12/20 12:37:48;;;;;;;6.70;4.70;;;10.50;99.90;;;;;;5085693;28;20478;-86
2022/12/20 12:40:39;;;;;;;8.07;4.13;;;10.40;99.90;;;;;;5054768;28;20498;-85
2022/12/20 12:43:21;;;;;;;6.57;3.97;;;10.40;99.90;;;;;;5065425;28;20025;-86
2022/12/20 12:45:50;;;;;;;8.50;4.97;;;10.40;99.90;;;;;;5058371;28;20104;-89
2022/12/20 12:48:19;;;;;;;6.07;4.18;;;10.40;99.90;;;;;;5059614;28;20064;-86
2022/12/20 12:50:49;;;;;;;8.88;4.97;;;10.40;99.90;;;;;;5059941;28;20051;-86
2022/12/20 12:53:22;;;;;;;8.55;4.30;;;10.50;99.90;;;;;;5082056;28;20036;-88
2022/12/20 12:55:50;;;;;;;8.75;5.10;;;10.50;99.90;;;;;;5056679;28;20028;-89
2022/12/20 12:58:22;;;;;;;8.32;4.80;;;10.50;99.90;;;;;;5062980;28;20025;-88
2022/12/20 13:00:54;;;;;;;8.80;5.15;;;10.40;99.90;;;;;;5061147;28;20084;-89
2022/12/20 13:03:37;;;;;;;7.15;4.28;;;10.40;99.90;;;;;;5060755;28;20608;-90
2022/12/20 13:06:22;;;;;;;6.40;4.68;;;10.50;99.90;;;;;;5060441;28;20025;-88
2022/12/20 13:09:02;;;;;;;8.52;5.05;;;10.50;99.90;;;;;;5081375;28;20020;-87
2022/12/20 13:11:35;;;;;;;8.07;5.35;;;10.50;99.90;;;;;;5080247;28;20089;-86